Airfield :
LOGIN :

Register | Disclaimer

   EN    FR    IT 

 










Legend :    VFR   Marginal VFR   IFR   Intensive IFR   Very Intensive IFR
Visi :
Ceiling :
>= 8 km
>= 3000ft
5 to 8 km
1000 to 3000 ft
1500m to 5 km
500 to 1000 ft
800 to 1500m
200 to 500 ft
< 800m
< 200 ft
Symbols :   Thunderstorms  Fog  Heavy snow  Heavy precipitations  Wind > 20 kt
SIGMETs :     Misc.  Thunderstorms  Icing  Turbulence  Mountain Waves  Volcanic Ashes







- Airport Elevation : 392 ft
- IATA code : CDG
- Download approach charts


LFPG - Paris-Aeroport Charles De Gaulle

EXPIRED METARs :
  • 201500Z 33007KT 300V360 9999 FEW016 BKN054 06/03 Q1017 BECMG BKN012

TAF TAF LFPG
Valid from the 20 at 12:00 until the 21 at 18:00 UTC


201100Z 2012/2118 02005KT 9999 BKN013
TEMPO 2012/2015 BKN020
TEMPO 2016/2022 BKN010
PROB30
TEMPO 2018/2022 4000 -RADZ BKN008
BECMG 2022/2024 CAVOK
PROB30
TEMPO 2104/2109 BKN008 TX05/2014Z TNM01/2106Z
ATIS : +33 1 48 62 10 92
No reported NOTAMs for that airfield.



MET'MAP, your aeronautical weather chart ! - Copyright ORBIFLY December 2007 - Disclaimer

ORBIFLY MET'MAP TEAM :

Programming & Development : Alexandra Zaïnal
Concept & Development : Baudouin d'Aumeries
Co-Development & Prog : Marc-Olivier Méhu
Technical & hardware support : Manuel Goepfert

Contact : metmap@orbifly.com




SOURCES & CREDITS :

   NOAA